createdAt,value
2017-12-30T00:31:31.831Z,7.10
2017-12-30T00:33:59.353Z,7.70
2017-12-30T00:36:26.900Z,7.23
2017-12-30T00:38:54.459Z,6.87
2017-12-30T00:41:21.984Z,6.73
2017-12-30T00:43:49.501Z,6.77
2017-12-30T00:46:17.022Z,6.57
2017-12-30T00:48:44.536Z,6.70
2017-12-30T00:51:12.079Z,6.50
2017-12-30T00:53:39.680Z,6.93
2017-12-30T00:56:07.227Z,6.97
2017-12-30T00:58:34.758Z,6.97
2017-12-30T01:01:02.277Z,7.17
2017-12-30T01:03:29.788Z,6.87
2017-12-30T01:05:57.296Z,6.80
2017-12-30T01:08:24.857Z,6.60
2017-12-30T01:10:52.410Z,6.67
2017-12-30T01:13:19.933Z,7.13
2017-12-30T01:15:47.446Z,6.77
2017-12-30T01:18:14.955Z,6.57
2017-12-30T01:20:42.464Z,6.10
2017-12-30T01:23:09.992Z,6.73
2017-12-30T01:25:37.549Z,6.47
2017-12-30T01:28:05.081Z,6.40
2017-12-30T01:30:32.602Z,6.33
2017-12-30T01:33:00.116Z,6.73
2017-12-30T01:35:27.632Z,6.90
2017-12-30T01:37:55.143Z,6.50
2017-12-30T01:40:22.676Z,6.53
2017-12-30T01:42:51.189Z,6.83
2017-12-30T01:45:18.748Z,7.40
2017-12-30T01:47:46.296Z,7.07
2017-12-30T01:50:13.816Z,7.27
2017-12-30T01:52:41.343Z,6.20
2017-12-30T01:55:08.855Z,7.03
2017-12-30T01:57:36.365Z,7.17
2017-12-30T02:00:03.920Z,7.13
2017-12-30T02:02:31.461Z,6.90
2017-12-30T02:04:58.976Z,6.83
2017-12-30T02:07:26.483Z,6.80
2017-12-30T02:09:54.002Z,7.60
2017-12-30T02:12:21.512Z,6.90
2017-12-30T02:14:49.020Z,7.43
2017-12-30T02:17:16.547Z,7.23
2017-12-30T02:19:44.056Z,8.23
2017-12-30T02:22:11.556Z,7.80
2017-12-30T02:24:39.074Z,7.47
2017-12-30T02:27:06.586Z,7.23
2017-12-30T02:29:34.098Z,7.30
2017-12-30T02:32:01.616Z,7.13
2017-12-30T02:34:29.128Z,7.80
2017-12-30T02:36:56.647Z,7.43
2017-12-30T02:39:24.161Z,7.47
2017-12-30T02:41:51.692Z,7.67
2017-12-30T02:44:19.204Z,7.43
2017-12-30T02:46:46.717Z,6.97
2017-12-30T02:49:14.231Z,7.60
2017-12-30T02:51:41.732Z,7.30
2017-12-30T02:54:09.250Z,8.03
2017-12-30T02:56:36.764Z,7.80
2017-12-30T02:59:04.276Z,7.70
2017-12-30T03:01:31.781Z,7.73
2017-12-30T03:03:59.302Z,7.47
2017-12-30T03:06:26.823Z,7.63
2017-12-30T03:08:54.341Z,7.60
2017-12-30T03:11:21.854Z,7.87
2017-12-30T03:13:49.364Z,8.37
2017-12-30T03:16:17.732Z,8.13
2017-12-30T03:18:45.229Z,8.37
2017-12-30T03:21:12.753Z,7.77
2017-12-30T03:23:40.265Z,7.97
2017-12-30T03:26:07.784Z,7.73
2017-12-30T03:28:35.305Z,7.83
2017-12-30T03:31:02.814Z,7.80
2017-12-30T03:33:30.326Z,7.43
2017-12-30T03:35:57.828Z,7.90
2017-12-30T03:38:25.341Z,7.87
2017-12-30T03:40:52.849Z,7.83
2017-12-30T03:43:20.363Z,7.87
2017-12-30T03:45:47.877Z,7.73
2017-12-30T03:48:15.380Z,7.90
2017-12-30T03:50:42.885Z,8.33
2017-12-30T03:53:10.400Z,7.73
2017-12-30T03:55:37.915Z,7.93
2017-12-30T03:58:05.415Z,8.03
2017-12-30T04:00:32.916Z,7.53
2017-12-30T04:03:00.424Z,7.43
2017-12-30T04:05:27.940Z,7.30
2017-12-30T04:07:55.449Z,7.17
2017-12-30T04:10:22.965Z,7.03
2017-12-30T04:12:50.468Z,7.40
2017-12-30T04:15:17.975Z,7.27
2017-12-30T04:17:45.476Z,6.57
2017-12-30T04:20:12.982Z,7.53
2017-12-30T04:22:40.488Z,7.17
2017-12-30T04:25:08.000Z,7.87
2017-12-30T04:27:35.515Z,7.33
2017-12-30T04:30:03.023Z,7.13
2017-12-30T04:32:30.553Z,7.67
2017-12-30T04:34:58.065Z,7.83
2017-12-30T04:37:25.568Z,7.73
2017-12-30T04:39:53.076Z,6.83
2017-12-30T04:42:20.589Z,7.73
2017-12-30T04:44:48.103Z,7.37
2017-12-30T04:47:15.616Z,7.73
2017-12-30T04:49:43.138Z,7.33
2017-12-30T04:52:10.639Z,7.00
2017-12-30T04:54:38.140Z,7.63
2017-12-30T04:57:05.648Z,6.77
2017-12-30T04:59:33.158Z,7.03
2017-12-30T05:02:00.669Z,7.10
2017-12-30T05:04:28.176Z,6.50
2017-12-30T05:06:55.680Z,6.87
2017-12-30T05:09:23.218Z,6.77
2017-12-30T05:11:50.720Z,7.27
2017-12-30T05:14:18.235Z,6.70
2017-12-30T05:16:45.739Z,7.27
2017-12-30T05:19:13.252Z,7.37
2017-12-30T05:21:40.759Z,7.10
2017-12-30T05:24:08.297Z,6.97
2017-12-30T05:26:35.808Z,6.67
2017-12-30T05:29:03.316Z,6.37
2017-12-30T05:31:30.828Z,6.40
2017-12-30T05:33:58.332Z,6.80
2017-12-30T05:36:25.846Z,6.87
2017-12-30T05:38:53.362Z,6.00
2017-12-30T05:41:21.033Z,5.93
2017-12-30T05:43:48.544Z,6.73
2017-12-30T05:46:16.049Z,6.13
2017-12-30T05:48:43.548Z,6.00
2017-12-30T05:51:11.082Z,6.20
2017-12-30T05:53:38.593Z,6.87
2017-12-30T05:56:06.127Z,6.33
2017-12-30T05:58:33.640Z,5.80
2017-12-30T06:01:01.147Z,5.87
2017-12-30T06:03:28.648Z,5.97
2017-12-30T06:05:56.152Z,6.33
2017-12-30T06:08:23.664Z,5.70
2017-12-30T06:10:51.179Z,5.97
2017-12-30T06:13:18.696Z,6.37
2017-12-30T06:15:46.192Z,5.37
2017-12-30T06:18:13.704Z,5.90
2017-12-30T06:20:41.220Z,5.60
2017-12-30T06:23:08.716Z,6.07
2017-12-30T06:25:36.229Z,5.97
2017-12-30T06:28:03.737Z,5.73
2017-12-30T06:30:31.243Z,5.90
2017-12-30T06:32:58.753Z,5.67
2017-12-30T06:35:26.261Z,5.87
2017-12-30T06:37:53.764Z,5.53
2017-12-30T06:40:21.277Z,5.47
2017-12-30T06:42:48.796Z,6.13
2017-12-30T06:45:16.313Z,6.03
2017-12-30T06:47:43.824Z,5.23
2017-12-30T06:50:11.334Z,6.23
2017-12-30T06:52:38.841Z,6.07
2017-12-30T06:55:06.354Z,6.00
2017-12-30T06:57:33.869Z,5.53
2017-12-30T07:00:01.387Z,6.63
2017-12-30T07:02:28.906Z,6.70
2017-12-30T07:04:56.411Z,5.97
2017-12-30T07:07:23.925Z,6.30
2017-12-30T07:09:51.427Z,6.30
2017-12-30T07:12:18.937Z,6.90
2017-12-30T07:14:46.439Z,6.70
2017-12-30T07:17:13.961Z,7.27
2017-12-30T07:19:41.471Z,7.60
2017-12-30T07:22:08.988Z,7.53
2017-12-30T07:24:36.517Z,6.77
2017-12-30T07:27:04.026Z,7.00
2017-12-30T07:29:31.560Z,6.97
2017-12-30T07:31:59.063Z,6.87
2017-12-30T07:34:26.560Z,6.97
2017-12-30T07:36:54.057Z,7.40
2017-12-30T07:39:21.562Z,7.17
2017-12-30T07:41:49.074Z,7.30
2017-12-30T07:44:16.576Z,7.10
2017-12-30T07:46:44.094Z,7.47
2017-12-30T07:49:11.596Z,7.43
2017-12-30T07:51:39.111Z,7.10
2017-12-30T07:54:06.630Z,7.73
2017-12-30T07:56:34.134Z,7.13
2017-12-30T07:59:01.647Z,7.80
2017-12-30T08:01:29.152Z,7.80
2017-12-30T08:03:56.659Z,7.10
2017-12-30T08:06:24.177Z,8.00
2017-12-30T08:08:51.685Z,7.47
2017-12-30T08:11:19.194Z,7.40
2017-12-30T08:13:46.742Z,7.97
2017-12-30T08:16:14.285Z,7.70
2017-12-30T08:18:41.853Z,7.80
2017-12-30T08:21:09.381Z,8.33
2017-12-30T08:23:36.889Z,7.70
2017-12-30T08:26:04.395Z,7.53
2017-12-30T08:28:31.908Z,8.20
2017-12-30T08:30:59.417Z,8.50
2017-12-30T08:33:26.917Z,7.37
2017-12-30T08:35:54.435Z,7.83
2017-12-30T08:38:21.973Z,7.43
2017-12-30T08:40:49.493Z,7.47
2017-12-30T08:43:16.992Z,7.67
2017-12-30T08:45:44.513Z,7.83
2017-12-30T08:48:12.023Z,7.80
2017-12-30T08:50:39.524Z,7.27
2017-12-30T08:53:07.161Z,8.03
2017-12-30T08:55:34.723Z,7.73
2017-12-30T08:58:02.217Z,7.17
2017-12-30T09:00:29.749Z,6.97
2017-12-30T09:02:57.255Z,6.50
2017-12-30T09:05:24.854Z,6.80
2017-12-30T09:07:52.404Z,7.00
2017-12-30T09:10:19.968Z,6.57
2017-12-30T09:12:47.472Z,6.70
2017-12-30T09:15:14.996Z,7.30
2017-12-30T09:17:42.491Z,6.30
2017-12-30T09:20:10.001Z,6.53
2017-12-30T09:22:37.523Z,6.47
2017-12-30T09:25:05.060Z,6.33
2017-12-30T09:27:32.697Z,6.50
2017-12-30T09:30:00.205Z,6.50
2017-12-30T09:32:27.723Z,6.30
2017-12-30T09:34:55.247Z,6.70
2017-12-30T09:37:22.760Z,6.60
2017-12-30T09:39:50.265Z,6.27
2017-12-30T09:42:17.834Z,6.40
2017-12-30T09:44:45.335Z,6.20
2017-12-30T09:47:12.880Z,6.20
2017-12-30T09:49:40.386Z,6.40
2017-12-30T09:52:07.892Z,5.97
2017-12-30T09:54:35.395Z,6.10
2017-12-30T09:57:02.897Z,6.63
2017-12-30T09:59:30.400Z,6.27
2017-12-30T10:01:57.923Z,6.27
2017-12-30T10:04:25.448Z,6.50
2017-12-30T10:06:53.036Z,6.17
2017-12-30T10:09:20.542Z,5.70
2017-12-30T10:11:48.044Z,5.43
2017-12-30T10:14:15.613Z,5.13
2017-12-30T10:16:43.124Z,5.80
2017-12-30T10:19:10.649Z,5.67
2017-12-30T10:21:38.181Z,5.33
2017-12-30T10:24:05.738Z,5.80
2017-12-30T10:26:33.253Z,5.50
2017-12-30T10:29:00.761Z,4.97
2017-12-30T10:31:28.268Z,6.37
2017-12-30T10:33:55.825Z,5.43
2017-12-30T10:38:54.091Z,5.13
2017-12-30T10:41:21.592Z,4.70
2017-12-30T10:43:49.185Z,5.27
2017-12-30T10:46:16.764Z,4.20
2017-12-30T10:48:44.324Z,4.93
2017-12-30T10:51:11.822Z,4.57
2017-12-30T10:53:39.321Z,5.25
2017-12-30T10:56:06.898Z,5.00
2017-12-30T10:58:34.396Z,4.90
2017-12-30T11:01:01.905Z,4.77
2017-12-30T11:03:29.483Z,5.17
2017-12-30T11:05:57.018Z,4.43
2017-12-30T11:08:24.605Z,4.90
2017-12-30T11:10:52.137Z,5.43
2017-12-30T11:13:19.649Z,4.70
2017-12-30T11:15:47.179Z,5.07
2017-12-30T11:18:14.705Z,5.30
2017-12-30T11:20:42.239Z,4.87
2017-12-30T11:23:09.852Z,5.20
2017-12-30T11:25:37.401Z,4.93
2017-12-30T11:28:04.965Z,5.30
2017-12-30T11:30:32.524Z,4.77
2017-12-30T11:33:00.013Z,4.93
2017-12-30T11:35:27.553Z,4.67
2017-12-30T11:37:55.050Z,4.93
2017-12-30T11:40:22.569Z,5.00
2017-12-30T11:42:50.077Z,5.27
2017-12-30T11:45:17.602Z,4.70
2017-12-30T11:47:45.112Z,4.63
2017-12-30T11:50:12.621Z,4.90
2017-12-30T11:52:40.139Z,4.40
2017-12-30T11:55:07.646Z,4.33
2017-12-30T11:57:35.147Z,4.17
2017-12-30T12:00:02.656Z,4.03
2017-12-30T12:02:30.155Z,4.00
2017-12-30T12:04:57.957Z,4.20
2017-12-30T12:07:25.470Z,4.70
2017-12-30T12:09:52.968Z,4.30
2017-12-30T12:12:20.480Z,4.30
2017-12-30T12:14:48.277Z,4.40
2017-12-30T12:17:15.833Z,4.70
2017-12-30T12:19:43.315Z,4.47
2017-12-30T12:22:10.819Z,4.47
2017-12-30T12:24:38.327Z,4.37
2017-12-30T12:27:05.865Z,4.70
2017-12-30T12:29:33.377Z,4.67
2017-12-30T12:32:00.897Z,4.57
2017-12-30T12:34:28.464Z,4.27
2017-12-30T12:36:55.964Z,4.13
2017-12-30T12:39:23.464Z,4.83
2017-12-30T12:41:50.973Z,4.10
2017-12-30T12:44:18.479Z,4.70
2017-12-30T12:46:45.985Z,4.57
2017-12-30T12:49:13.529Z,4.50
2017-12-30T12:51:41.031Z,4.53
2017-12-30T12:54:08.654Z,4.30
2017-12-30T12:56:36.177Z,4.00
2017-12-30T12:59:03.703Z,4.27
2017-12-30T13:01:31.212Z,4.43
2017-12-30T13:03:58.734Z,3.90
2017-12-30T13:06:26.251Z,3.87
2017-12-30T13:08:53.755Z,4.67
2017-12-30T13:11:21.253Z,4.07
2017-12-30T13:13:48.757Z,4.33
2017-12-30T13:16:16.285Z,4.90
2017-12-30T13:18:43.862Z,3.77
2017-12-30T13:21:11.360Z,3.43
2017-12-30T13:23:38.879Z,4.17
2017-12-30T13:26:06.759Z,4.43
2017-12-30T13:28:34.260Z,4.63
2017-12-30T13:31:01.762Z,4.43
2017-12-30T13:33:29.306Z,4.50
2017-12-30T13:35:56.817Z,4.00
2017-12-30T13:38:24.311Z,3.97
2017-12-30T13:40:51.812Z,4.57
2017-12-30T13:43:19.313Z,4.87
2017-12-30T13:45:46.817Z,3.60
2017-12-30T13:48:14.319Z,4.27
2017-12-30T13:50:41.829Z,3.80
2017-12-30T13:53:09.361Z,4.17
2017-12-30T13:55:36.868Z,3.70
2017-12-30T13:58:04.369Z,3.53
2017-12-30T14:00:31.873Z,3.57
2017-12-30T14:02:59.372Z,3.70
2017-12-30T14:05:26.894Z,3.20
2017-12-30T14:07:54.391Z,3.77
2017-12-30T14:10:21.907Z,3.10
2017-12-30T14:12:49.407Z,3.43
2017-12-30T14:15:16.907Z,3.13
2017-12-30T14:17:44.411Z,3.97
2017-12-30T14:20:11.907Z,3.23
2017-12-30T14:22:39.410Z,3.37
2017-12-30T14:25:06.908Z,3.80
2017-12-30T14:27:34.408Z,3.90
2017-12-30T14:30:01.919Z,3.87
2017-12-30T14:32:29.434Z,3.80
2017-12-30T14:34:56.929Z,3.73
2017-12-30T14:37:24.434Z,3.77
2017-12-30T14:39:51.943Z,4.90
2017-12-30T14:42:19.443Z,4.30
2017-12-30T14:44:46.960Z,3.90
2017-12-30T14:47:14.464Z,4.43
2017-12-30T14:49:41.971Z,4.97
2017-12-30T14:52:09.472Z,4.70
2017-12-30T14:54:36.972Z,4.00
2017-12-30T14:57:04.471Z,4.60
2017-12-30T14:59:31.988Z,5.13
2017-12-30T15:01:59.508Z,4.60
2017-12-30T15:04:27.007Z,4.30
2017-12-30T15:06:54.524Z,4.57
2017-12-30T15:09:22.027Z,4.13
2017-12-30T15:11:49.544Z,4.97
2017-12-30T15:14:17.052Z,4.63
2017-12-30T15:16:44.564Z,4.77
2017-12-30T15:19:12.068Z,4.97
2017-12-30T15:21:39.563Z,5.30
2017-12-30T15:24:07.102Z,5.80
2017-12-30T15:26:34.611Z,6.23
2017-12-30T15:29:02.122Z,5.20
2017-12-30T15:31:29.635Z,5.37
2017-12-30T15:33:57.145Z,5.67
2017-12-30T15:36:24.676Z,6.17
2017-12-30T15:38:52.180Z,5.80
2017-12-30T15:41:19.694Z,5.57
2017-12-30T15:43:47.197Z,5.93
2017-12-30T15:46:14.788Z,5.70
2017-12-30T15:48:42.305Z,5.77
2017-12-30T15:51:09.809Z,5.93
2017-12-30T15:53:37.328Z,6.17
2017-12-30T15:56:04.836Z,6.73
2017-12-30T15:58:32.336Z,6.10
2017-12-30T16:00:59.841Z,5.37
2017-12-30T16:03:27.373Z,6.90
2017-12-30T16:05:54.885Z,5.60
2017-12-30T16:08:22.388Z,5.70
2017-12-30T16:10:49.895Z,5.90
2017-12-30T16:13:17.401Z,5.87
2017-12-30T16:15:44.912Z,6.10
2017-12-30T16:18:12.416Z,6.07
2017-12-30T16:20:39.931Z,6.67
2017-12-30T16:23:07.464Z,6.57
2017-12-30T16:25:34.962Z,6.23
2017-12-30T16:28:02.468Z,6.27
2017-12-30T16:30:29.977Z,6.63
2017-12-30T16:32:57.506Z,6.47
2017-12-30T16:35:25.016Z,6.43
2017-12-30T16:37:52.541Z,6.33
2017-12-30T16:40:20.048Z,6.47
2017-12-30T16:42:47.574Z,6.83
2017-12-30T16:45:15.086Z,7.70
2017-12-30T16:47:42.599Z,7.33
2017-12-30T16:50:10.096Z,7.13
2017-12-30T16:52:37.601Z,6.93
2017-12-30T16:55:05.115Z,7.40
2017-12-30T16:57:32.636Z,6.60
2017-12-30T17:00:00.173Z,6.93
2017-12-30T17:02:27.682Z,10.80
2017-12-30T17:04:55.197Z,11.50
2017-12-30T17:07:22.716Z,7.43
2017-12-30T17:09:50.224Z,7.03
2017-12-30T17:12:17.740Z,6.30
2017-12-30T17:14:45.253Z,6.10
2017-12-30T17:17:12.767Z,6.33
2017-12-30T17:19:40.276Z,5.93
2017-12-30T17:22:07.789Z,6.57
2017-12-30T17:24:35.288Z,5.73
2017-12-30T17:27:02.787Z,6.73
2017-12-30T17:29:30.282Z,9.83
2017-12-30T17:31:57.784Z,5.70
2017-12-30T17:34:25.298Z,5.43
2017-12-30T17:36:52.817Z,5.27
2017-12-30T17:39:20.321Z,5.30
2017-12-30T17:41:47.848Z,5.03
2017-12-30T17:44:15.363Z,5.80
2017-12-30T17:46:42.871Z,5.40
2017-12-30T17:49:10.394Z,6.20
2017-12-30T17:51:37.908Z,4.90
2017-12-30T17:54:05.410Z,5.27
2017-12-30T17:56:32.919Z,5.27
2017-12-30T17:59:00.427Z,5.57
2017-12-30T18:01:27.935Z,5.37
2017-12-30T18:03:55.438Z,5.13
2017-12-30T18:06:22.949Z,5.20
2017-12-30T18:08:50.448Z,4.97
2017-12-30T18:11:17.951Z,4.97
2017-12-30T18:13:45.453Z,5.33
2017-12-30T18:16:12.954Z,4.83
2017-12-30T18:18:40.455Z,5.40
2017-12-30T18:21:07.947Z,5.20
2017-12-30T18:23:35.462Z,5.30
2017-12-30T18:26:02.964Z,5.03
2017-12-30T18:28:30.473Z,5.53
2017-12-30T18:30:57.980Z,5.30
2017-12-30T18:33:25.490Z,4.67
2017-12-30T18:35:52.993Z,5.07
2017-12-30T18:38:20.517Z,5.53
2017-12-30T18:40:48.068Z,4.97
2017-12-30T18:43:15.541Z,6.10
2017-12-30T18:45:43.037Z,5.37
2017-12-30T18:48:10.563Z,5.40
2017-12-30T18:50:38.104Z,5.47
2017-12-30T18:53:05.608Z,5.23
2017-12-30T18:55:33.128Z,4.90
2017-12-30T18:58:00.628Z,5.03
2017-12-30T19:00:28.136Z,5.80
2017-12-30T19:02:55.636Z,4.63
2017-12-30T19:05:23.149Z,4.87
2017-12-30T19:07:50.648Z,4.77
2017-12-30T19:10:18.148Z,5.13
2017-12-30T19:12:45.658Z,5.50
2017-12-30T19:15:13.160Z,4.97
2017-12-30T19:17:40.740Z,5.00
2017-12-30T19:20:08.302Z,4.90
2017-12-30T19:22:35.864Z,4.97
2017-12-30T19:25:03.376Z,5.10
2017-12-30T19:27:30.882Z,4.60
2017-12-30T19:29:58.380Z,5.10
2017-12-30T19:32:25.887Z,4.97
2017-12-30T19:34:53.459Z,4.70
2017-12-30T19:37:20.957Z,4.77
2017-12-30T19:39:48.464Z,5.27
2017-12-30T19:42:16.038Z,4.37
2017-12-30T19:44:43.594Z,4.97
2017-12-30T19:47:11.109Z,5.03
2017-12-30T19:49:38.625Z,4.93
2017-12-30T19:52:06.156Z,5.20
2017-12-30T19:54:33.725Z,5.23
2017-12-30T19:57:01.245Z,5.40
2017-12-30T19:59:28.808Z,5.63
2017-12-30T20:01:56.338Z,5.90
2017-12-30T20:04:23.853Z,5.93
2017-12-30T20:06:51.360Z,5.23
2017-12-30T20:09:18.867Z,6.40
2017-12-30T20:11:46.372Z,12.13
2017-12-30T20:14:14.003Z,19.67
2017-12-30T20:16:41.567Z,22.80
2017-12-30T20:19:09.084Z,20.60
2017-12-30T20:21:36.609Z,16.60
2017-12-30T20:24:04.111Z,14.67
2017-12-30T20:26:31.629Z,16.77
2017-12-30T20:28:59.357Z,15.47
2017-12-30T20:31:26.904Z,14.57
2017-12-30T20:33:54.486Z,8.80
2017-12-30T20:36:22.053Z,8.47
2017-12-30T20:38:49.606Z,8.60
2017-12-30T20:41:17.115Z,8.67
2017-12-30T20:43:44.618Z,6.87
2017-12-30T20:46:12.120Z,7.50
2017-12-30T20:48:39.623Z,7.07
2017-12-30T20:51:07.164Z,7.13
2017-12-30T20:53:35.278Z,7.27
2017-12-30T20:56:02.807Z,7.53
2017-12-30T20:58:30.484Z,6.97
2017-12-30T21:00:58.061Z,6.80
2017-12-30T21:03:25.724Z,6.53
2017-12-30T21:05:53.265Z,7.17
2017-12-30T21:08:20.794Z,6.93
2017-12-30T21:10:48.326Z,6.90
2017-12-30T21:13:15.825Z,7.57
2017-12-30T21:15:43.329Z,7.83
2017-12-30T21:18:10.856Z,6.73
2017-12-30T21:20:38.371Z,7.17
2017-12-30T21:23:05.983Z,7.67
2017-12-30T21:25:33.568Z,6.70
2017-12-30T21:28:01.206Z,6.90
2017-12-30T21:30:28.764Z,6.87
2017-12-30T21:32:56.293Z,6.67
2017-12-30T21:35:23.816Z,6.00
2017-12-30T21:37:51.455Z,6.43
2017-12-30T21:40:18.957Z,6.80
2017-12-30T21:42:46.459Z,6.83
2017-12-30T21:45:14.142Z,6.20
2017-12-30T21:47:41.667Z,5.80
2017-12-30T21:50:09.360Z,5.80
2017-12-30T21:52:36.938Z,5.93
2017-12-30T21:55:04.456Z,6.37
2017-12-30T21:57:31.969Z,6.10
2017-12-30T21:59:59.475Z,6.07
2017-12-30T22:02:27.016Z,5.43
2017-12-30T22:04:54.676Z,5.47
2017-12-30T22:07:22.190Z,6.27
2017-12-30T22:09:49.847Z,5.57
2017-12-30T22:12:17.397Z,5.23
2017-12-30T22:14:44.962Z,5.87
2017-12-30T22:17:12.474Z,5.23
2017-12-30T22:19:40.000Z,5.23
2017-12-30T22:22:07.597Z,5.37
2017-12-30T22:24:35.104Z,4.70
2017-12-30T22:27:02.611Z,4.63
2017-12-30T22:29:30.124Z,5.60
2017-12-30T22:31:57.637Z,4.70
2017-12-30T22:34:25.149Z,3.77
2017-12-30T22:36:52.798Z,5.17
2017-12-30T22:39:20.570Z,4.43
2017-12-30T22:41:48.244Z,4.07
2017-12-30T22:44:15.744Z,4.50
2017-12-30T22:46:43.275Z,4.07
2017-12-30T22:49:10.786Z,3.73
2017-12-30T22:51:38.292Z,4.53
2017-12-30T22:54:05.807Z,3.53
2017-12-30T22:56:33.478Z,3.47
2017-12-30T22:59:01.148Z,3.17
2017-12-30T23:01:28.678Z,4.13
2017-12-30T23:03:56.279Z,3.50
2017-12-30T23:06:23.885Z,3.80
2017-12-30T23:08:51.399Z,3.10
2017-12-30T23:11:18.909Z,3.60
2017-12-30T23:13:46.430Z,3.70
2017-12-30T23:16:13.945Z,4.03
2017-12-30T23:18:41.508Z,3.70
2017-12-30T23:21:09.033Z,3.33
2017-12-30T23:23:36.540Z,2.73
2017-12-30T23:26:04.061Z,2.97
2017-12-30T23:28:31.577Z,3.50
2017-12-30T23:30:59.208Z,2.50
2017-12-30T23:33:26.744Z,2.80
2017-12-30T23:35:54.343Z,2.90
2017-12-30T23:38:21.860Z,2.70
2017-12-30T23:40:49.390Z,3.50
2017-12-30T23:43:16.903Z,2.73
2017-12-30T23:45:44.470Z,2.93
2017-12-30T23:48:11.989Z,2.47
2017-12-30T23:50:39.534Z,3.13
2017-12-30T23:53:07.057Z,3.10
2017-12-30T23:55:34.564Z,3.00
2017-12-30T23:58:02.073Z,2.87
